createdAt,value
2023-02-15T00:03:33.365Z,-0.30
2023-02-15T00:08:36.774Z,-0.30
2023-02-15T00:13:43.893Z,-0.30
2023-02-15T00:18:47.255Z,-0.40
2023-02-15T00:23:50.850Z,-0.40
2023-02-15T00:28:54.337Z,-0.50
2023-02-15T00:33:57.732Z,-0.50
2023-02-15T00:39:01.280Z,-0.60
2023-02-15T00:44:05.125Z,-0.60
2023-02-15T00:49:08.695Z,-0.60
2023-02-15T00:54:12.112Z,-0.60
2023-02-15T00:59:15.342Z,-0.50
2023-02-15T01:04:18.548Z,-0.50
2023-02-15T01:09:22.067Z,-0.50
2023-02-15T01:14:25.629Z,-0.50
2023-02-15T01:19:29.142Z,-0.50
2023-02-15T01:24:32.604Z,-0.50
2023-02-15T01:29:35.835Z,-0.50
2023-02-15T01:34:39.067Z,-0.40
2023-02-15T01:39:42.757Z,-0.50
2023-02-15T01:45:16.065Z,-0.40
2023-02-15T01:50:22.362Z,-0.40
2023-02-15T01:55:29.685Z,-0.40
2023-02-15T02:00:34.734Z,-0.30
2023-02-15T02:05:40.289Z,-0.30
2023-02-15T02:10:44.351Z,-0.20
2023-02-15T02:16:02.056Z,-0.10
2023-02-15T02:21:24.004Z,-0.10
2023-02-15T02:26:42.940Z,-0.10
2023-02-15T02:32:01.587Z,-0.10
2023-02-15T02:37:40.444Z,0.00
2023-02-15T02:42:50.958Z,0.00
2023-02-15T02:48:25.184Z,0.00
2023-02-15T02:53:31.277Z,0.00
2023-02-15T02:58:46.973Z,0.00
2023-02-15T03:03:59.909Z,0.00
2023-02-15T03:09:36.094Z,0.10
2023-02-15T03:14:42.258Z,0.10
2023-02-15T03:19:47.927Z,0.10
2023-02-15T03:24:57.479Z,0.10
2023-02-15T03:30:03.534Z,0.10
2023-02-15T03:35:08.500Z,0.00
2023-02-15T03:40:32.411Z,0.00
2023-02-15T03:45:39.088Z,0.00
2023-02-15T03:51:01.321Z,-0.10
2023-02-15T03:56:04.811Z,-0.10
2023-02-15T04:01:53.756Z,-0.10
2023-02-15T04:06:57.026Z,-0.10
2023-02-15T04:12:00.248Z,0.00
2023-02-15T04:17:07.586Z,0.00
2023-02-15T04:22:29.488Z,0.00
2023-02-15T04:27:32.764Z,0.00
2023-02-15T04:32:37.327Z,0.00
2023-02-15T04:37:42.067Z,0.00
2023-02-15T04:42:45.444Z,0.00
2023-02-15T04:47:48.772Z,0.10
2023-02-15T04:52:52.330Z,0.10
2023-02-15T04:57:55.641Z,0.10
2023-02-15T05:02:59.305Z,0.10
2023-02-15T05:08:02.686Z,0.10
2023-02-15T05:13:06.044Z,0.10
2023-02-15T05:18:09.324Z,0.00
2023-02-15T05:23:12.807Z,0.10
2023-02-15T05:28:22.477Z,0.10
2023-02-15T05:33:26.017Z,0.10
2023-02-15T05:38:29.927Z,0.10
2023-02-15T05:43:33.910Z,0.20
2023-02-15T05:48:37.256Z,0.20
2023-02-15T05:53:41.085Z,0.30
2023-02-15T05:58:44.540Z,0.30
2023-02-15T06:03:48.047Z,0.40
2023-02-15T06:08:51.505Z,0.40
2023-02-15T06:13:55.030Z,0.50
2023-02-15T06:18:58.396Z,0.50
2023-02-15T06:24:02.104Z,0.50
2023-02-15T06:29:06.054Z,0.50
2023-02-15T06:34:09.618Z,0.50
2023-02-15T06:39:13.186Z,0.50
2023-02-15T06:44:16.832Z,0.60
2023-02-15T06:49:20.100Z,0.50
2023-02-15T06:54:23.292Z,0.50
2023-02-15T06:59:26.642Z,0.50
2023-02-15T07:04:31.080Z,0.60
2023-02-15T07:09:34.465Z,0.70
2023-02-15T07:14:37.947Z,0.80
2023-02-15T07:19:41.435Z,0.90
2023-02-15T07:24:44.771Z,0.90
2023-02-15T07:29:48.294Z,0.90
2023-02-15T07:34:51.411Z,0.90
2023-02-15T07:39:54.787Z,0.90
2023-02-15T07:44:58.393Z,0.90
2023-02-15T07:50:01.795Z,1.10
2023-02-15T07:55:05.543Z,1.20
2023-02-15T08:00:09.364Z,1.30
2023-02-15T08:05:13.012Z,1.40
2023-02-15T08:10:36.322Z,1.40
2023-02-15T08:15:40.063Z,1.50
2023-02-15T08:20:43.529Z,1.60
2023-02-15T08:25:47.046Z,1.70
2023-02-15T08:30:50.290Z,1.80
2023-02-15T08:35:53.782Z,2.00
2023-02-15T08:40:57.111Z,2.10
2023-02-15T08:46:00.364Z,2.20
2023-02-15T08:51:15.504Z,2.30
2023-02-15T08:56:31.064Z,2.50
2023-02-15T09:01:35.716Z,2.60
2023-02-15T09:06:40.456Z,2.70
2023-02-15T09:11:45.865Z,2.80
2023-02-15T09:16:52.161Z,2.90
2023-02-15T09:21:55.792Z,3.00
2023-02-15T09:26:58.919Z,3.10
2023-02-15T09:32:02.204Z,3.20
2023-02-15T09:37:07.763Z,3.40
2023-02-15T09:42:41.082Z,3.40
2023-02-15T09:47:53.910Z,3.60
2023-02-15T09:53:13.266Z,3.70
2023-02-15T09:58:49.757Z,3.70
2023-02-15T10:04:21.202Z,3.80
2023-02-15T10:09:51.226Z,3.80
2023-02-15T10:15:04.262Z,3.80
2023-02-15T10:20:19.288Z,3.80
2023-02-15T10:25:40.742Z,3.80
2023-02-15T10:30:47.706Z,3.80
2023-02-15T10:35:56.690Z,3.80
2023-02-15T10:41:03.047Z,3.70
2023-02-15T10:46:31.367Z,3.70
2023-02-15T10:52:12.127Z,3.70
2023-02-15T10:57:24.546Z,3.80
2023-02-15T11:02:56.856Z,3.90
2023-02-15T11:08:05.251Z,4.00
2023-02-15T11:13:17.793Z,4.00
2023-02-15T11:18:34.110Z,4.10
2023-02-15T11:23:41.882Z,4.00
2023-02-15T11:29:14.812Z,3.90
2023-02-15T11:34:41.751Z,3.90
2023-02-15T11:39:45.737Z,3.90
2023-02-15T11:45:40.995Z,4.00
2023-02-15T11:50:45.903Z,4.10
2023-02-15T11:55:52.075Z,4.10
2023-02-15T12:01:04.461Z,4.20
2023-02-15T12:06:34.439Z,4.20
2023-02-15T12:11:42.458Z,4.40
2023-02-15T12:16:52.300Z,4.40
2023-02-15T12:21:55.529Z,4.40
2023-02-15T12:27:05.460Z,4.40
2023-02-15T12:32:24.236Z,4.40
2023-02-15T12:37:37.121Z,4.40
2023-02-15T12:42:45.857Z,4.40
2023-02-15T12:48:10.851Z,4.50
2023-02-15T12:53:26.575Z,4.40
2023-02-15T12:58:32.233Z,4.40
2023-02-15T13:03:36.627Z,4.40
2023-02-15T13:08:50.350Z,4.40
2023-02-15T13:14:18.608Z,4.40
2023-02-15T13:19:28.179Z,4.60
2023-02-15T13:24:40.972Z,4.70
2023-02-15T13:29:52.155Z,4.80
2023-02-15T13:35:05.362Z,4.90
2023-02-15T13:40:29.699Z,4.80
2023-02-15T13:45:58.869Z,4.70
2023-02-15T13:51:19.660Z,4.60
2023-02-15T13:56:50.949Z,4.60
2023-02-15T14:02:23.091Z,4.60
2023-02-15T14:07:49.360Z,4.60
2023-02-15T14:13:33.732Z,4.50
2023-02-15T14:18:52.647Z,4.50
2023-02-15T14:24:19.494Z,4.50
2023-02-15T14:30:05.039Z,4.40
2023-02-15T14:35:20.005Z,4.30
2023-02-15T14:40:59.354Z,4.30
2023-02-15T14:46:44.328Z,4.20
2023-02-15T14:51:51.549Z,4.20
2023-02-15T14:57:03.518Z,4.20
2023-02-15T15:02:10.668Z,4.30
2023-02-15T15:07:13.735Z,4.30
2023-02-15T15:12:22.812Z,4.30
2023-02-15T15:17:39.566Z,4.20
2023-02-15T15:22:45.237Z,4.20
2023-02-15T15:27:55.980Z,4.10
2023-02-15T15:33:35.809Z,4.00
2023-02-15T15:38:57.963Z,4.10
2023-02-15T15:44:25.224Z,4.10
2023-02-15T15:49:37.262Z,4.00
2023-02-15T15:54:48.446Z,4.00
2023-02-15T16:00:01.372Z,4.00
2023-02-15T16:05:14.746Z,4.00
2023-02-15T16:10:35.083Z,3.90
2023-02-15T16:15:55.979Z,3.80
2023-02-15T16:21:03.837Z,3.80
2023-02-15T16:26:31.226Z,3.80
2023-02-15T16:31:38.945Z,3.70
2023-02-15T16:36:54.318Z,3.70
2023-02-15T16:42:03.294Z,3.70
2023-02-15T16:47:26.564Z,3.70
2023-02-15T16:52:32.624Z,3.70
2023-02-15T16:57:41.509Z,3.70
2023-02-15T17:03:15.174Z,3.70
2023-02-15T17:08:45.783Z,3.70
2023-02-15T17:14:12.575Z,3.60
2023-02-15T17:19:25.667Z,3.60
2023-02-15T17:24:38.650Z,3.60
2023-02-15T17:29:53.552Z,3.60
2023-02-15T17:35:24.180Z,3.60
2023-02-15T17:40:34.473Z,3.60
2023-02-15T17:45:50.439Z,3.50
2023-02-15T17:50:56.006Z,3.50
2023-02-15T17:56:12.516Z,3.50
2023-02-15T18:01:39.902Z,3.50
2023-02-15T18:07:04.019Z,3.50
2023-02-15T18:12:30.145Z,3.50
2023-02-15T18:17:38.435Z,3.50
2023-02-15T18:22:44.590Z,3.50
2023-02-15T18:27:51.365Z,3.50
2023-02-15T18:33:03.362Z,3.40
2023-02-15T18:38:10.913Z,3.40
2023-02-15T18:43:19.537Z,3.30
2023-02-15T18:48:27.373Z,3.30
2023-02-15T18:53:32.897Z,3.30
2023-02-15T18:58:39.340Z,3.20
2023-02-15T19:03:51.453Z,3.10
2023-02-15T19:08:56.664Z,3.00
2023-02-15T19:14:06.478Z,2.90
2023-02-15T19:19:15.918Z,2.80
2023-02-15T19:24:37.899Z,2.70
2023-02-15T19:29:44.334Z,2.60
2023-02-15T19:34:50.947Z,2.50
2023-02-15T19:39:59.059Z,2.40
2023-02-15T19:45:10.917Z,2.20
2023-02-15T19:50:27.234Z,2.10
2023-02-15T19:55:38.715Z,2.00
2023-02-15T20:00:44.429Z,2.00
2023-02-15T20:05:50.979Z,1.90
2023-02-15T20:10:58.111Z,1.80
2023-02-15T20:16:07.103Z,1.70
2023-02-15T20:21:17.587Z,1.60
2023-02-15T20:26:24.407Z,1.50
2023-02-15T20:31:34.129Z,1.40
2023-02-15T20:36:41.594Z,1.30
2023-02-15T20:41:49.226Z,1.30
2023-02-15T20:46:59.164Z,1.20
2023-02-15T20:52:18.560Z,1.10
2023-02-15T20:57:25.052Z,1.10
2023-02-15T21:02:30.817Z,1.00
2023-02-15T21:07:37.170Z,0.90
2023-02-15T21:12:43.676Z,0.80
2023-02-15T21:17:50.286Z,0.70
2023-02-15T21:22:55.139Z,0.60
2023-02-15T21:28:00.952Z,0.40
2023-02-15T21:33:06.689Z,0.30
2023-02-15T21:38:17.451Z,0.20
2023-02-15T21:43:43.013Z,0.20
2023-02-15T21:48:47.952Z,0.20
2023-02-15T21:53:51.972Z,0.20
2023-02-15T21:58:56.024Z,0.20
2023-02-15T22:04:00.266Z,0.10
2023-02-15T22:09:23.714Z,0.10
2023-02-15T22:14:38.357Z,0.00
2023-02-15T22:19:41.945Z,0.00
2023-02-15T22:24:46.787Z,0.00
2023-02-15T22:29:51.118Z,0.00
2023-02-15T22:34:54.953Z,0.00
2023-02-15T22:39:58.122Z,-0.10
2023-02-15T22:45:01.751Z,-0.20
2023-02-15T22:50:24.384Z,-0.20
2023-02-15T22:55:31.161Z,-0.20
2023-02-15T23:00:40.113Z,-0.20
2023-02-15T23:05:43.552Z,-0.30
2023-02-15T23:10:52.255Z,-0.30
2023-02-15T23:16:04.342Z,-0.30
2023-02-15T23:21:25.126Z,-0.20
2023-02-15T23:26:34.625Z,-0.20
2023-02-15T23:31:40.992Z,-0.30
2023-02-15T23:36:44.822Z,-0.30
2023-02-15T23:41:48.090Z,-0.30
2023-02-15T23:46:51.692Z,-0.40
2023-02-15T23:51:57.615Z,-0.40
2023-02-15T23:57:05.303Z,-0.40
